sensor_id;sensor_type;location;lat;lon;timestamp;P1;durP1;ratioP1;P2;durP2;ratioP2
1048;SDS011;513;51.444;7.196;2023-02-28T00:00:46;9.07;;;5.55;;
1048;SDS011;513;51.444;7.196;2023-02-28T00:03:14;9.48;;;4.90;;
1048;SDS011;513;51.444;7.196;2023-02-28T00:05:41;8.48;;;5.32;;
1048;SDS011;513;51.444;7.196;2023-02-28T00:08:08;8.05;;;4.85;;
1048;SDS011;513;51.444;7.196;2023-02-28T00:10:35;7.50;;;5.00;;
1048;SDS011;513;51.444;7.196;2023-02-28T00:13:02;8.25;;;4.72;;
1048;SDS011;513;51.444;7.196;2023-02-28T00:15:31;9.70;;;4.70;;
1048;SDS011;513;51.444;7.196;2023-02-28T00:17:58;7.45;;;4.70;;
1048;SDS011;513;51.444;7.196;2023-02-28T00:20:26;9.18;;;4.90;;
1048;SDS011;513;51.444;7.196;2023-02-28T00:22:53;7.18;;;4.78;;
1048;SDS011;513;51.444;7.196;2023-02-28T00:25:21;8.40;;;4.75;;
1048;SDS011;513;51.444;7.196;2023-02-28T00:27:49;7.60;;;4.30;;
1048;SDS011;513;51.444;7.196;2023-02-28T00:30:17;6.57;;;4.60;;
1048;SDS011;513;51.444;7.196;2023-02-28T00:32:44;8.05;;;4.70;;
1048;SDS011;513;51.444;7.196;2023-02-28T00:35:11;6.60;;;4.82;;
1048;SDS011;513;51.444;7.196;2023-02-28T00:37:40;7.45;;;5.50;;
1048;SDS011;513;51.444;7.196;2023-02-28T00:40:07;8.38;;;4.90;;
1048;SDS011;513;51.444;7.196;2023-02-28T00:42:36;7.63;;;5.13;;
1048;SDS011;513;51.444;7.196;2023-02-28T00:45:03;6.75;;;4.60;;
1048;SDS011;513;51.444;7.196;2023-02-28T00:47:30;6.73;;;4.63;;
1048;SDS011;513;51.444;7.196;2023-02-28T00:49:57;8.02;;;4.60;;
1048;SDS011;513;51.444;7.196;2023-02-28T00:52:24;8.80;;;5.15;;
1048;SDS011;513;51.444;7.196;2023-02-28T00:54:52;8.38;;;4.85;;
1048;SDS011;513;51.444;7.196;2023-02-28T00:57:18;8.80;;;5.00;;
1048;SDS011;513;51.444;7.196;2023-02-28T00:59:45;7.60;;;4.70;;
1048;SDS011;513;51.444;7.196;2023-02-28T01:02:12;6.65;;;4.45;;
1048;SDS011;513;51.444;7.196;2023-02-28T01:04:38;9.43;;;4.95;;
1048;SDS011;513;51.444;7.196;2023-02-28T01:07:05;8.67;;;4.53;;
1048;SDS011;513;51.444;7.196;2023-02-28T01:09:31;6.53;;;4.90;;
1048;SDS011;513;51.444;7.196;2023-02-28T01:11:59;6.70;;;4.73;;
1048;SDS011;513;51.444;7.196;2023-02-28T01:14:26;7.40;;;4.68;;
1048;SDS011;513;51.444;7.196;2023-02-28T01:16:52;6.45;;;4.60;;
1048;SDS011;513;51.444;7.196;2023-02-28T01:19:19;6.93;;;4.40;;
1048;SDS011;513;51.444;7.196;2023-02-28T01:21:46;7.85;;;4.97;;
1048;SDS011;513;51.444;7.196;2023-02-28T01:24:12;6.17;;;4.47;;
1048;SDS011;513;51.444;7.196;2023-02-28T01:26:39;8.55;;;5.10;;
1048;SDS011;513;51.444;7.196;2023-02-28T01:29:07;6.55;;;4.30;;
1048;SDS011;513;51.444;7.196;2023-02-28T01:31:34;6.57;;;4.60;;
1048;SDS011;513;51.444;7.196;2023-02-28T01:34:01;6.90;;;4.72;;
1048;SDS011;513;51.444;7.196;2023-02-28T01:36:27;7.97;;;5.05;;
1048;SDS011;513;51.444;7.196;2023-02-28T01:38:54;7.10;;;4.85;;
1048;SDS011;513;51.444;7.196;2023-02-28T01:41:22;8.23;;;5.07;;
1048;SDS011;513;51.444;7.196;2023-02-28T01:43:53;7.28;;;4.88;;
1048;SDS011;513;51.444;7.196;2023-02-28T01:46:30;9.02;;;4.90;;
1048;SDS011;513;51.444;7.196;2023-02-28T01:48:59;6.20;;;4.82;;
1048;SDS011;513;51.444;7.196;2023-02-28T01:51:30;8.60;;;4.90;;
1048;SDS011;513;51.444;7.196;2023-02-28T01:54:03;7.13;;;4.68;;
1048;SDS011;513;51.444;7.196;2023-02-28T01:56:38;6.72;;;4.65;;
1048;SDS011;513;51.444;7.196;2023-02-28T01:59:07;7.23;;;4.80;;
1048;SDS011;513;51.444;7.196;2023-02-28T02:01:35;6.97;;;4.68;;
1048;SDS011;513;51.444;7.196;2023-02-28T02:04:02;6.72;;;4.53;;
1048;SDS011;513;51.444;7.196;2023-02-28T02:06:30;6.88;;;5.00;;
1048;SDS011;513;51.444;7.196;2023-02-28T02:09:01;7.25;;;4.85;;
1048;SDS011;513;51.444;7.196;2023-02-28T02:11:28;8.07;;;5.50;;
1048;SDS011;513;51.444;7.196;2023-02-28T02:14:03;8.68;;;5.40;;
1048;SDS011;513;51.444;7.196;2023-02-28T02:16:54;7.38;;;5.03;;
1048;SDS011;513;51.444;7.196;2023-02-28T02:19:38;8.50;;;4.97;;
1048;SDS011;513;51.444;7.196;2023-02-28T02:22:29;7.38;;;4.85;;
1048;SDS011;513;51.444;7.196;2023-02-28T02:25:28;8.23;;;4.97;;
1048;SDS011;513;51.444;7.196;2023-02-28T02:28:15;7.05;;;4.80;;
1048;SDS011;513;51.444;7.196;2023-02-28T02:31:33;7.50;;;4.68;;
1048;SDS011;513;51.444;7.196;2023-02-28T02:37:17;7.60;;;4.90;;
1048;SDS011;513;51.444;7.196;2023-02-28T02:39:58;7.47;;;4.75;;
1048;SDS011;513;51.444;7.196;2023-02-28T02:42:31;7.05;;;4.80;;
1048;SDS011;513;51.444;7.196;2023-02-28T02:45:06;7.95;;;5.20;;
1048;SDS011;513;51.444;7.196;2023-02-28T02:47:35;7.03;;;4.60;;
1048;SDS011;513;51.444;7.196;2023-02-28T02:50:06;6.60;;;4.88;;
1048;SDS011;513;51.444;7.196;2023-02-28T02:52:38;8.40;;;5.10;;
1048;SDS011;513;51.444;7.196;2023-02-28T02:55:11;7.38;;;5.28;;
1048;SDS011;513;51.444;7.196;2023-02-28T02:57:43;8.50;;;5.38;;
1048;SDS011;513;51.444;7.196;2023-02-28T03:00:13;9.55;;;5.45;;
1048;SDS011;513;51.444;7.196;2023-02-28T03:02:43;9.18;;;5.22;;
1048;SDS011;513;51.444;7.196;2023-02-28T03:05:14;9.48;;;5.50;;
1048;SDS011;513;51.444;7.196;2023-02-28T03:07:45;8.93;;;5.30;;
1048;SDS011;513;51.444;7.196;2023-02-28T03:16:08;9.97;;;5.60;;
1048;SDS011;513;51.444;7.196;2023-02-28T03:18:50;7.80;;;5.30;;
1048;SDS011;513;51.444;7.196;2023-02-28T03:21:26;9.40;;;4.90;;
1048;SDS011;513;51.444;7.196;2023-02-28T03:24:02;7.18;;;4.80;;
1048;SDS011;513;51.444;7.196;2023-02-28T03:26:32;9.32;;;5.30;;
1048;SDS011;513;51.444;7.196;2023-02-28T03:29:05;7.47;;;5.17;;
1048;SDS011;513;51.444;7.196;2023-02-28T03:31:43;7.47;;;4.90;;
1048;SDS011;513;51.444;7.196;2023-02-28T03:34:14;8.50;;;4.82;;
1048;SDS011;513;51.444;7.196;2023-02-28T03:36:47;10.00;;;4.70;;
1048;SDS011;513;51.444;7.196;2023-02-28T03:39:16;7.85;;;4.80;;
1048;SDS011;513;51.444;7.196;2023-02-28T03:41:47;7.40;;;4.72;;
1048;SDS011;513;51.444;7.196;2023-02-28T03:44:21;8.25;;;5.18;;
1048;SDS011;513;51.444;7.196;2023-02-28T03:46:52;11.07;;;5.60;;
1048;SDS011;513;51.444;7.196;2023-02-28T03:49:24;7.57;;;5.10;;
1048;SDS011;513;51.444;7.196;2023-02-28T03:51:55;9.30;;;5.70;;
1048;SDS011;513;51.444;7.196;2023-02-28T03:54:25;9.55;;;5.18;;
1048;SDS011;513;51.444;7.196;2023-02-28T03:56:56;7.03;;;5.07;;
1048;SDS011;513;51.444;7.196;2023-02-28T03:59:28;9.20;;;5.03;;
1048;SDS011;513;51.444;7.196;2023-02-28T04:01:59;7.72;;;5.03;;
1048;SDS011;513;51.444;7.196;2023-02-28T04:04:26;7.50;;;5.13;;
1048;SDS011;513;51.444;7.196;2023-02-28T04:06:52;8.87;;;4.93;;
1048;SDS011;513;51.444;7.196;2023-02-28T04:09:29;9.18;;;5.10;;
1048;SDS011;513;51.444;7.196;2023-02-28T04:11:56;7.57;;;5.05;;
1048;SDS011;513;51.444;7.196;2023-02-28T04:14:23;7.97;;;5.03;;
1048;SDS011;513;51.444;7.196;2023-02-28T04:16:50;9.35;;;5.07;;
1048;SDS011;513;51.444;7.196;2023-02-28T04:19:17;9.32;;;4.80;;
1048;SDS011;513;51.444;7.196;2023-02-28T04:21:45;7.70;;;4.55;;
1048;SDS011;513;51.444;7.196;2023-02-28T04:24:15;7.72;;;4.63;;
1048;SDS011;513;51.444;7.196;2023-02-28T04:26:43;6.40;;;4.75;;
1048;SDS011;513;51.444;7.196;2023-02-28T04:29:11;7.22;;;4.57;;
1048;SDS011;513;51.444;7.196;2023-02-28T04:31:39;7.10;;;5.32;;
1048;SDS011;513;51.444;7.196;2023-02-28T04:34:06;6.53;;;4.85;;
1048;SDS011;513;51.444;7.196;2023-02-28T04:36:33;6.93;;;4.53;;
1048;SDS011;513;51.444;7.196;2023-02-28T04:39:00;7.07;;;5.20;;
1048;SDS011;513;51.444;7.196;2023-02-28T04:41:28;7.50;;;4.97;;
1048;SDS011;513;51.444;7.196;2023-02-28T04:43:55;8.02;;;5.32;;
1048;SDS011;513;51.444;7.196;2023-02-28T04:46:22;7.75;;;5.20;;
1048;SDS011;513;51.444;7.196;2023-02-28T04:48:49;7.07;;;5.28;;
1048;SDS011;513;51.444;7.196;2023-02-28T04:51:16;7.13;;;4.95;;
1048;SDS011;513;51.444;7.196;2023-02-28T04:53:44;7.22;;;5.10;;
1048;SDS011;513;51.444;7.196;2023-02-28T04:56:12;8.32;;;5.10;;
1048;SDS011;513;51.444;7.196;2023-02-28T04:58:41;9.07;;;5.28;;
1048;SDS011;513;51.444;7.196;2023-02-28T05:01:16;8.35;;;5.30;;
1048;SDS011;513;51.444;7.196;2023-02-28T05:03:48;7.68;;;4.90;;
1048;SDS011;513;51.444;7.196;2023-02-28T05:06:15;5.90;;;4.72;;
1048;SDS011;513;51.444;7.196;2023-02-28T05:08:42;7.33;;;5.00;;
1048;SDS011;513;51.444;7.196;2023-02-28T05:11:12;7.20;;;4.70;;
1048;SDS011;513;51.444;7.196;2023-02-28T05:13:43;7.53;;;5.00;;
1048;SDS011;513;51.444;7.196;2023-02-28T05:16:09;8.55;;;5.20;;
1048;SDS011;513;51.444;7.196;2023-02-28T05:18:36;8.40;;;5.85;;
1048;SDS011;513;51.444;7.196;2023-02-28T05:21:03;7.90;;;5.37;;
1048;SDS011;513;51.444;7.196;2023-02-28T05:23:30;8.20;;;5.37;;
1048;SDS011;513;51.444;7.196;2023-02-28T05:25:56;7.15;;;5.10;;
1048;SDS011;513;51.444;7.196;2023-02-28T05:28:23;8.10;;;4.97;;
1048;SDS011;513;51.444;7.196;2023-02-28T05:30:51;8.10;;;5.45;;
1048;SDS011;513;51.444;7.196;2023-02-28T05:33:18;7.55;;;5.38;;
1048;SDS011;513;51.444;7.196;2023-02-28T05:35:45;8.38;;;5.88;;
1048;SDS011;513;51.444;7.196;2023-02-28T05:38:11;9.23;;;5.93;;
1048;SDS011;513;51.444;7.196;2023-02-28T05:40:38;8.23;;;5.82;;
1048;SDS011;513;51.444;7.196;2023-02-28T05:43:05;8.93;;;5.72;;
1048;SDS011;513;51.444;7.196;2023-02-28T05:45:35;7.60;;;5.50;;
1048;SDS011;513;51.444;7.196;2023-02-28T05:48:03;8.02;;;5.75;;
1048;SDS011;513;51.444;7.196;2023-02-28T05:50:30;7.38;;;5.72;;
1048;SDS011;513;51.444;7.196;2023-02-28T05:52:56;8.25;;;5.60;;
1048;SDS011;513;51.444;7.196;2023-02-28T05:55:23;8.52;;;6.03;;
1048;SDS011;513;51.444;7.196;2023-02-28T05:57:50;7.72;;;5.97;;
1048;SDS011;513;51.444;7.196;2023-02-28T06:00:17;9.45;;;6.32;;
1048;SDS011;513;51.444;7.196;2023-02-28T06:02:44;9.10;;;6.32;;
1048;SDS011;513;51.444;7.196;2023-02-28T06:05:14;8.88;;;5.72;;
1048;SDS011;513;51.444;7.196;2023-02-28T06:07:42;11.05;;;6.13;;
1048;SDS011;513;51.444;7.196;2023-02-28T06:10:09;10.07;;;6.75;;
1048;SDS011;513;51.444;7.196;2023-02-28T06:12:37;9.95;;;5.70;;
1048;SDS011;513;51.444;7.196;2023-02-28T06:15:04;8.63;;;6.20;;
1048;SDS011;513;51.444;7.196;2023-02-28T06:17:31;7.90;;;5.75;;
1048;SDS011;513;51.444;7.196;2023-02-28T06:19:58;8.48;;;6.20;;
1048;SDS011;513;51.444;7.196;2023-02-28T06:22:26;10.27;;;6.32;;
1048;SDS011;513;51.444;7.196;2023-02-28T06:24:53;9.93;;;6.65;;
1048;SDS011;513;51.444;7.196;2023-02-28T06:27:20;8.50;;;5.88;;
1048;SDS011;513;51.444;7.196;2023-02-28T06:29:47;10.70;;;6.38;;
1048;SDS011;513;51.444;7.196;2023-02-28T06:32:13;9.30;;;5.85;;
1048;SDS011;513;51.444;7.196;2023-02-28T06:34:40;8.48;;;6.20;;
1048;SDS011;513;51.444;7.196;2023-02-28T06:37:07;9.45;;;6.22;;
1048;SDS011;513;51.444;7.196;2023-02-28T06:39:35;9.98;;;6.25;;
1048;SDS011;513;51.444;7.196;2023-02-28T06:42:02;11.18;;;5.93;;
1048;SDS011;513;51.444;7.196;2023-02-28T06:44:28;9.98;;;5.60;;
1048;SDS011;513;51.444;7.196;2023-02-28T06:47:00;9.73;;;6.35;;
1048;SDS011;513;51.444;7.196;2023-02-28T06:49:27;11.02;;;6.03;;
1048;SDS011;513;51.444;7.196;2023-02-28T06:51:54;8.50;;;6.22;;
1048;SDS011;513;51.444;7.196;2023-02-28T06:54:20;9.18;;;6.28;;
1048;SDS011;513;51.444;7.196;2023-02-28T06:56:48;8.63;;;5.80;;
1048;SDS011;513;51.444;7.196;2023-02-28T06:59:15;8.52;;;5.90;;
1048;SDS011;513;51.444;7.196;2023-02-28T07:01:42;8.20;;;5.72;;
1048;SDS011;513;51.444;7.196;2023-02-28T07:04:09;9.35;;;6.53;;
1048;SDS011;513;51.444;7.196;2023-02-28T07:06:36;8.35;;;6.07;;
1048;SDS011;513;51.444;7.196;2023-02-28T07:09:02;9.18;;;5.88;;
1048;SDS011;513;51.444;7.196;2023-02-28T07:11:30;9.98;;;5.70;;
1048;SDS011;513;51.444;7.196;2023-02-28T07:13:58;7.90;;;5.25;;
1048;SDS011;513;51.444;7.196;2023-02-28T07:16:25;8.00;;;5.45;;
1048;SDS011;513;51.444;7.196;2023-02-28T07:18:52;6.30;;;5.18;;
1048;SDS011;513;51.444;7.196;2023-02-28T07:21:19;9.63;;;5.70;;
1048;SDS011;513;51.444;7.196;2023-02-28T07:23:46;7.28;;;5.35;;
1048;SDS011;513;51.444;7.196;2023-02-28T07:26:14;9.60;;;5.40;;
1048;SDS011;513;51.444;7.196;2023-02-28T07:28:42;6.70;;;5.20;;
1048;SDS011;513;51.444;7.196;2023-02-28T07:31:10;7.75;;;5.25;;
1048;SDS011;513;51.444;7.196;2023-02-28T07:33:38;6.35;;;5.10;;
1048;SDS011;513;51.444;7.196;2023-02-28T07:36:06;8.68;;;5.25;;
1048;SDS011;513;51.444;7.196;2023-02-28T07:38:34;8.70;;;5.13;;
1048;SDS011;513;51.444;7.196;2023-02-28T07:41:02;5.90;;;4.90;;
1048;SDS011;513;51.444;7.196;2023-02-28T07:43:30;6.57;;;4.38;;
1048;SDS011;513;51.444;7.196;2023-02-28T07:46:00;6.47;;;4.57;;
1048;SDS011;513;51.444;7.196;2023-02-28T07:48:30;8.30;;;4.55;;
1048;SDS011;513;51.444;7.196;2023-02-28T07:50:56;5.85;;;4.20;;
1048;SDS011;513;51.444;7.196;2023-02-28T07:53:24;6.57;;;4.40;;
1048;SDS011;513;51.444;7.196;2023-02-28T07:55:51;7.38;;;4.32;;
1048;SDS011;513;51.444;7.196;2023-02-28T07:58:21;5.83;;;4.03;;
1048;SDS011;513;51.444;7.196;2023-02-28T08:00:47;9.07;;;4.70;;
1048;SDS011;513;51.444;7.196;2023-02-28T08:03:14;6.80;;;4.47;;
1048;SDS011;513;51.444;7.196;2023-02-28T08:05:42;7.93;;;4.72;;
1048;SDS011;513;51.444;7.196;2023-02-28T08:08:09;6.43;;;3.90;;
1048;SDS011;513;51.444;7.196;2023-02-28T08:10:36;10.73;;;4.75;;
1048;SDS011;513;51.444;7.196;2023-02-28T08:13:03;5.82;;;4.07;;
1048;SDS011;513;51.444;7.196;2023-02-28T08:15:30;6.18;;;4.10;;
1048;SDS011;513;51.444;7.196;2023-02-28T08:17:56;7.55;;;4.40;;
1048;SDS011;513;51.444;7.196;2023-02-28T08:20:23;6.53;;;4.50;;
1048;SDS011;513;51.444;7.196;2023-02-28T08:22:51;7.07;;;4.50;;
1048;SDS011;513;51.444;7.196;2023-02-28T08:25:18;6.88;;;4.50;;
1048;SDS011;513;51.444;7.196;2023-02-28T08:27:45;5.95;;;4.28;;
1048;SDS011;513;51.444;7.196;2023-02-28T08:30:12;5.25;;;3.97;;
1048;SDS011;513;51.444;7.196;2023-02-28T08:32:40;6.60;;;4.27;;
1048;SDS011;513;51.444;7.196;2023-02-28T08:35:07;6.15;;;4.05;;
1048;SDS011;513;51.444;7.196;2023-02-28T08:37:35;10.63;;;4.63;;
1048;SDS011;513;51.444;7.196;2023-02-28T08:40:03;6.53;;;4.70;;
1048;SDS011;513;51.444;7.196;2023-02-28T08:42:31;7.25;;;4.53;;
1048;SDS011;513;51.444;7.196;2023-02-28T08:44:58;8.55;;;4.82;;
1048;SDS011;513;51.444;7.196;2023-02-28T08:47:25;8.00;;;4.47;;
1048;SDS011;513;51.444;7.196;2023-02-28T08:49:51;8.00;;;4.57;;
1048;SDS011;513;51.444;7.196;2023-02-28T08:52:18;6.53;;;4.28;;
1048;SDS011;513;51.444;7.196;2023-02-28T08:54:45;8.07;;;4.25;;
1048;SDS011;513;51.444;7.196;2023-02-28T08:57:13;6.03;;;4.10;;
1048;SDS011;513;51.444;7.196;2023-02-28T08:59:40;6.23;;;4.07;;
1048;SDS011;513;51.444;7.196;2023-02-28T09:02:08;7.45;;;4.15;;
1048;SDS011;513;51.444;7.196;2023-02-28T09:04:35;6.20;;;4.32;;
1048;SDS011;513;51.444;7.196;2023-02-28T09:07:02;6.43;;;4.53;;
1048;SDS011;513;51.444;7.196;2023-02-28T09:09:29;6.63;;;3.83;;
1048;SDS011;513;51.444;7.196;2023-02-28T09:11:56;6.13;;;3.65;;
1048;SDS011;513;51.444;7.196;2023-02-28T09:14:24;7.03;;;4.20;;
1048;SDS011;513;51.444;7.196;2023-02-28T09:16:51;5.45;;;3.80;;
1048;SDS011;513;51.444;7.196;2023-02-28T09:19:17;6.35;;;3.80;;
1048;SDS011;513;51.444;7.196;2023-02-28T09:21:44;7.18;;;3.70;;
1048;SDS011;513;51.444;7.196;2023-02-28T09:24:11;6.03;;;3.75;;
1048;SDS011;513;51.444;7.196;2023-02-28T09:26:40;7.97;;;4.00;;
1048;SDS011;513;51.444;7.196;2023-02-28T09:29:07;7.55;;;3.75;;
1048;SDS011;513;51.444;7.196;2023-02-28T09:31:35;6.45;;;3.63;;
1048;SDS011;513;51.444;7.196;2023-02-28T09:34:01;5.13;;;3.05;;
1048;SDS011;513;51.444;7.196;2023-02-28T09:36:29;9.30;;;3.85;;
1048;SDS011;513;51.444;7.196;2023-02-28T09:38:56;4.85;;;3.42;;
1048;SDS011;513;51.444;7.196;2023-02-28T09:41:23;3.78;;;3.22;;
1048;SDS011;513;51.444;7.196;2023-02-28T09:43:53;5.78;;;3.50;;
1048;SDS011;513;51.444;7.196;2023-02-28T09:46:26;4.32;;;3.45;;
1048;SDS011;513;51.444;7.196;2023-02-28T09:48:57;5.40;;;3.00;;
1048;SDS011;513;51.444;7.196;2023-02-28T09:51:30;6.63;;;3.20;;
1048;SDS011;513;51.444;7.196;2023-02-28T09:54:03;9.55;;;3.85;;
1048;SDS011;513;51.444;7.196;2023-02-28T09:56:31;3.85;;;3.00;;
1048;SDS011;513;51.444;7.196;2023-02-28T09:59:02;8.68;;;3.40;;
1048;SDS011;513;51.444;7.196;2023-02-28T10:01:37;3.13;;;2.42;;
1048;SDS011;513;51.444;7.196;2023-02-28T10:04:12;4.55;;;2.88;;
1048;SDS011;513;51.444;7.196;2023-02-28T10:06:44;3.47;;;2.80;;
1048;SDS011;513;51.444;7.196;2023-02-28T10:09:15;3.83;;;2.73;;
1048;SDS011;513;51.444;7.196;2023-02-28T10:11:45;6.03;;;2.70;;
1048;SDS011;513;51.444;7.196;2023-02-28T10:14:14;6.43;;;2.88;;
1048;SDS011;513;51.444;7.196;2023-02-28T10:16:44;13.95;;;3.50;;
1048;SDS011;513;51.444;7.196;2023-02-28T10:19:19;3.35;;;2.42;;
1048;SDS011;513;51.444;7.196;2023-02-28T10:21:51;3.60;;;2.50;;
1048;SDS011;513;51.444;7.196;2023-02-28T10:24:23;24.67;;;4.65;;
1048;SDS011;513;51.444;7.196;2023-02-28T10:26:56;4.93;;;2.67;;
1048;SDS011;513;51.444;7.196;2023-02-28T10:29:26;4.03;;;2.22;;
1048;SDS011;513;51.444;7.196;2023-02-28T10:31:54;8.43;;;3.05;;
1048;SDS011;513;51.444;7.196;2023-02-28T10:34:23;4.43;;;2.47;;
1048;SDS011;513;51.444;7.196;2023-02-28T10:36:50;12.98;;;3.80;;
1048;SDS011;513;51.444;7.196;2023-02-28T10:39:36;3.17;;;2.20;;
1048;SDS011;513;51.444;7.196;2023-02-28T10:42:05;16.90;;;3.93;;
1048;SDS011;513;51.444;7.196;2023-02-28T10:44:46;15.20;;;3.75;;
1048;SDS011;513;51.444;7.196;2023-02-28T10:47:14;2.40;;;1.83;;
1048;SDS011;513;51.444;7.196;2023-02-28T10:49:47;2.72;;;2.20;;
1048;SDS011;513;51.444;7.196;2023-02-28T10:52:32;14.63;;;3.40;;
1048;SDS011;513;51.444;7.196;2023-02-28T10:55:15;21.75;;;4.78;;
1048;SDS011;513;51.444;7.196;2023-02-28T10:57:47;2.20;;;1.67;;
1048;SDS011;513;51.444;7.196;2023-02-28T11:00:15;3.78;;;2.10;;
1048;SDS011;513;51.444;7.196;2023-02-28T11:02:44;48.37;;;7.77;;
1048;SDS011;513;51.444;7.196;2023-02-28T11:05:26;14.07;;;3.58;;
1048;SDS011;513;51.444;7.196;2023-02-28T11:07:57;3.83;;;2.85;;
1048;SDS011;513;51.444;7.196;2023-02-28T11:10:30;2.42;;;1.77;;
1048;SDS011;513;51.444;7.196;2023-02-28T11:12:59;3.70;;;2.15;;
1048;SDS011;513;51.444;7.196;2023-02-28T11:15:27;21.55;;;4.80;;
1048;SDS011;513;51.444;7.196;2023-02-28T11:17:57;10.23;;;2.83;;
1048;SDS011;513;51.444;7.196;2023-02-28T11:20:28;4.25;;;2.40;;
1048;SDS011;513;51.444;7.196;2023-02-28T11:22:57;7.68;;;2.63;;
1048;SDS011;513;51.444;7.196;2023-02-28T11:25:26;5.95;;;2.40;;
1048;SDS011;513;51.444;7.196;2023-02-28T11:27:57;9.95;;;2.97;;
1048;SDS011;513;51.444;7.196;2023-02-28T11:30:30;3.17;;;2.10;;
1048;SDS011;513;51.444;7.196;2023-02-28T11:32:59;2.40;;;2.00;;
1048;SDS011;513;51.444;7.196;2023-02-28T11:35:29;4.47;;;2.03;;
1048;SDS011;513;51.444;7.196;2023-02-28T11:37:59;2.78;;;1.77;;
1048;SDS011;513;51.444;7.196;2023-02-28T11:40:31;4.28;;;2.25;;
1048;SDS011;513;51.444;7.196;2023-02-28T11:43:09;4.35;;;2.60;;
1048;SDS011;513;51.444;7.196;2023-02-28T11:45:47;4.45;;;2.30;;
1048;SDS011;513;51.444;7.196;2023-02-28T11:48:26;3.88;;;2.60;;
1048;SDS011;513;51.444;7.196;2023-02-28T11:51:00;3.63;;;2.50;;
1048;SDS011;513;51.444;7.196;2023-02-28T11:53:40;5.10;;;2.53;;
1048;SDS011;513;51.444;7.196;2023-02-28T11:56:36;3.95;;;2.20;;
1048;SDS011;513;51.444;7.196;2023-02-28T11:59:11;2.50;;;2.00;;
1048;SDS011;513;51.444;7.196;2023-02-28T12:01:58;4.05;;;2.40;;
1048;SDS011;513;51.444;7.196;2023-02-28T12:04:45;3.42;;;2.33;;
1048;SDS011;513;51.444;7.196;2023-02-28T12:07:23;4.53;;;2.07;;
1048;SDS011;513;51.444;7.196;2023-02-28T12:09:59;4.55;;;2.40;;
1048;SDS011;513;51.444;7.196;2023-02-28T12:12:35;3.40;;;2.30;;
1048;SDS011;513;51.444;7.196;2023-02-28T12:15:20;3.22;;;2.40;;
1048;SDS011;513;51.444;7.196;2023-02-28T12:18:02;3.88;;;2.47;;
1048;SDS011;513;51.444;7.196;2023-02-28T12:20:39;2.78;;;2.15;;
1048;SDS011;513;51.444;7.196;2023-02-28T12:23:21;3.60;;;2.42;;
1048;SDS011;513;51.444;7.196;2023-02-28T12:26:14;3.03;;;1.98;;
1048;SDS011;513;51.444;7.196;2023-02-28T12:28:47;2.85;;;2.13;;
1048;SDS011;513;51.444;7.196;2023-02-28T12:31:18;3.45;;;2.58;;
1048;SDS011;513;51.444;7.196;2023-02-28T12:33:50;3.35;;;2.20;;
1048;SDS011;513;51.444;7.196;2023-02-28T12:36:20;2.75;;;2.30;;
1048;SDS011;513;51.444;7.196;2023-02-28T12:38:50;2.25;;;2.05;;
1048;SDS011;513;51.444;7.196;2023-02-28T12:41:23;3.37;;;2.30;;
1048;SDS011;513;51.444;7.196;2023-02-28T12:43:55;3.63;;;2.45;;
1048;SDS011;513;51.444;7.196;2023-02-28T12:46:28;7.20;;;3.50;;
1048;SDS011;513;51.444;7.196;2023-02-28T12:48:59;4.30;;;3.00;;
1048;SDS011;513;51.444;7.196;2023-02-28T12:51:31;5.10;;;2.58;;
1048;SDS011;513;51.444;7.196;2023-02-28T12:54:02;3.07;;;2.40;;
1048;SDS011;513;51.444;7.196;2023-02-28T14:29:24;4.90;;;3.72;;
1048;SDS011;513;51.444;7.196;2023-02-28T14:32:10;5.95;;;4.32;;
1048;SDS011;513;51.444;7.196;2023-02-28T14:34:48;5.43;;;3.78;;
1048;SDS011;513;51.444;7.196;2023-02-28T14:37:20;4.82;;;3.67;;
1048;SDS011;513;51.444;7.196;2023-02-28T14:39:52;5.00;;;3.53;;
1048;SDS011;513;51.444;7.196;2023-02-28T14:42:29;3.78;;;3.38;;
1048;SDS011;513;51.444;7.196;2023-02-28T14:44:58;3.92;;;3.53;;
1048;SDS011;513;51.444;7.196;2023-02-28T14:47:26;4.55;;;3.88;;
1048;SDS011;513;51.444;7.196;2023-02-28T14:49:56;4.60;;;3.63;;
1048;SDS011;513;51.444;7.196;2023-02-28T14:52:24;5.28;;;4.38;;
1048;SDS011;513;51.444;7.196;2023-02-28T14:54:54;5.68;;;4.07;;
1048;SDS011;513;51.444;7.196;2023-02-28T14:57:24;4.75;;;4.35;;
1048;SDS011;513;51.444;7.196;2023-02-28T15:00:01;4.93;;;3.97;;
1048;SDS011;513;51.444;7.196;2023-02-28T15:02:33;4.90;;;4.40;;
1048;SDS011;513;51.444;7.196;2023-02-28T15:05:01;6.65;;;4.38;;
1048;SDS011;513;51.444;7.196;2023-02-28T15:07:42;4.80;;;3.63;;
1048;SDS011;513;51.444;7.196;2023-02-28T15:10:10;4.53;;;4.07;;
1048;SDS011;513;51.444;7.196;2023-02-28T15:12:40;4.68;;;3.75;;
1048;SDS011;513;51.444;7.196;2023-02-28T15:15:18;5.05;;;3.58;;
1048;SDS011;513;51.444;7.196;2023-02-28T15:17:49;5.25;;;4.03;;
1048;SDS011;513;51.444;7.196;2023-02-28T15:20:18;4.57;;;3.60;;
1048;SDS011;513;51.444;7.196;2023-02-28T15:22:46;5.25;;;3.92;;
1048;SDS011;513;51.444;7.196;2023-02-28T15:25:17;4.40;;;3.55;;
1048;SDS011;513;51.444;7.196;2023-02-28T15:27:47;6.57;;;4.25;;
1048;SDS011;513;51.444;7.196;2023-02-28T15:30:15;5.22;;;3.80;;
1048;SDS011;513;51.444;7.196;2023-02-28T15:33:01;4.13;;;3.67;;
1048;SDS011;513;51.444;7.196;2023-02-28T15:35:33;4.40;;;3.47;;
1048;SDS011;513;51.444;7.196;2023-02-28T15:38:01;5.65;;;3.80;;
1048;SDS011;513;51.444;7.196;2023-02-28T15:40:31;5.93;;;3.60;;
1048;SDS011;513;51.444;7.196;2023-02-28T15:43:05;4.40;;;3.10;;
1048;SDS011;513;51.444;7.196;2023-02-28T15:45:36;5.35;;;3.53;;
1048;SDS011;513;51.444;7.196;2023-02-28T15:48:09;6.65;;;3.90;;
1048;SDS011;513;51.444;7.196;2023-02-28T15:50:42;4.70;;;3.25;;
1048;SDS011;513;51.444;7.196;2023-02-28T15:53:13;5.88;;;3.50;;
1048;SDS011;513;51.444;7.196;2023-02-28T15:55:42;4.65;;;3.50;;
1048;SDS011;513;51.444;7.196;2023-02-28T15:58:09;4.00;;;3.10;;
1048;SDS011;513;51.444;7.196;2023-02-28T16:00:40;5.03;;;3.47;;
1048;SDS011;513;51.444;7.196;2023-02-28T16:03:23;4.10;;;3.50;;
1048;SDS011;513;51.444;7.196;2023-02-28T16:08:47;5.38;;;3.83;;
1048;SDS011;513;51.444;7.196;2023-02-28T16:11:16;5.53;;;3.90;;
1048;SDS011;513;51.444;7.196;2023-02-28T16:13:43;3.83;;;3.42;;
1048;SDS011;513;51.444;7.196;2023-02-28T16:16:15;5.10;;;3.40;;
1048;SDS011;513;51.444;7.196;2023-02-28T16:18:43;4.95;;;3.85;;
1048;SDS011;513;51.444;7.196;2023-02-28T16:21:09;5.57;;;4.07;;
1048;SDS011;513;51.444;7.196;2023-02-28T16:23:36;5.05;;;3.58;;
1048;SDS011;513;51.444;7.196;2023-02-28T16:26:04;5.22;;;4.25;;
1048;SDS011;513;51.444;7.196;2023-02-28T16:28:35;8.55;;;4.22;;
1048;SDS011;513;51.444;7.196;2023-02-28T16:31:05;4.50;;;4.10;;
1048;SDS011;513;51.444;7.196;2023-02-28T16:33:34;8.02;;;4.00;;
1048;SDS011;513;51.444;7.196;2023-02-28T16:36:01;4.75;;;3.65;;
1048;SDS011;513;51.444;7.196;2023-02-28T16:38:28;9.82;;;4.10;;
1048;SDS011;513;51.444;7.196;2023-02-28T16:40:55;6.65;;;4.20;;
1048;SDS011;513;51.444;7.196;2023-02-28T16:43:25;5.38;;;4.05;;
1048;SDS011;513;51.444;7.196;2023-02-28T16:45:54;5.25;;;3.80;;
1048;SDS011;513;51.444;7.196;2023-02-28T16:48:21;6.10;;;3.88;;
1048;SDS011;513;51.444;7.196;2023-02-28T16:50:49;5.53;;;3.80;;
1048;SDS011;513;51.444;7.196;2023-02-28T16:53:16;4.40;;;3.67;;
1048;SDS011;513;51.444;7.196;2023-02-28T16:55:42;7.43;;;4.70;;
1048;SDS011;513;51.444;7.196;2023-02-28T16:58:11;4.55;;;3.60;;
1048;SDS011;513;51.444;7.196;2023-02-28T17:00:41;6.20;;;4.38;;
1048;SDS011;513;51.444;7.196;2023-02-28T17:03:09;5.23;;;3.50;;
1048;SDS011;513;51.444;7.196;2023-02-28T17:05:47;5.80;;;3.72;;
1048;SDS011;513;51.444;7.196;2023-02-28T17:08:15;5.75;;;3.53;;
1048;SDS011;513;51.444;7.196;2023-02-28T17:10:42;6.35;;;4.00;;
1048;SDS011;513;51.444;7.196;2023-02-28T17:13:09;5.40;;;3.90;;
1048;SDS011;513;51.444;7.196;2023-02-28T17:15:36;5.00;;;3.63;;
1048;SDS011;513;51.444;7.196;2023-02-28T17:18:03;5.03;;;3.40;;
1048;SDS011;513;51.444;7.196;2023-02-28T17:20:31;8.53;;;4.27;;
1048;SDS011;513;51.444;7.196;2023-02-28T17:22:57;6.38;;;3.70;;
1048;SDS011;513;51.444;7.196;2023-02-28T17:25:25;5.77;;;3.83;;
1048;SDS011;513;51.444;7.196;2023-02-28T17:27:52;5.43;;;3.80;;
1048;SDS011;513;51.444;7.196;2023-02-28T17:30:21;5.20;;;3.67;;
1048;SDS011;513;51.444;7.196;2023-02-28T17:32:49;5.90;;;3.50;;